sensor_id;sensor_type;location;lat;lon;timestamp;P1;durP1;ratioP1;P2;durP2;ratioP2
58404;SDS011;44200;50.732;4.276;2022-07-03T02:07:34;7.30;;;2.30;;
58404;SDS011;44200;50.732;4.276;2022-07-03T02:10:10;4.97;;;2.45;;
58404;SDS011;44200;50.732;4.276;2022-07-03T02:12:47;3.15;;;2.30;;
58404;SDS011;44200;50.732;4.276;2022-07-03T02:15:17;11.27;;;2.30;;
58404;SDS011;44200;50.732;4.276;2022-07-03T02:17:54;5.25;;;2.20;;
58404;SDS011;44200;50.732;4.276;2022-07-03T02:20:21;6.00;;;2.40;;
58404;SDS011;44200;50.732;4.276;2022-07-03T02:22:59;5.22;;;2.22;;
58404;SDS011;44200;50.732;4.276;2022-07-03T02:25:33;8.07;;;2.53;;
58404;SDS011;44200;50.732;4.276;2022-07-03T02:28:14;5.90;;;2.38;;
58404;SDS011;44200;50.732;4.276;2022-07-03T02:33:28;4.38;;;2.22;;
58404;SDS011;44200;50.732;4.276;2022-07-03T02:35:57;4.97;;;2.50;;
58404;SDS011;44200;50.732;4.276;2022-07-03T02:38:23;5.25;;;2.30;;
58404;SDS011;44200;50.732;4.276;2022-07-03T02:43:23;3.90;;;2.20;;
58404;SDS011;44200;50.732;4.276;2022-07-03T02:46:04;5.38;;;2.58;;
58404;SDS011;44200;50.732;4.276;2022-07-03T02:54:59;5.60;;;2.40;;
58404;SDS011;44200;50.732;4.276;2022-07-03T02:57:31;5.75;;;2.70;;
58404;SDS011;44200;50.732;4.276;2022-07-03T03:00:05;5.45;;;2.65;;
58404;SDS011;44200;50.732;4.276;2022-07-03T03:02:54;6.13;;;2.60;;
58404;SDS011;44200;50.732;4.276;2022-07-03T03:05:31;7.35;;;2.38;;
58404;SDS011;44200;50.732;4.276;2022-07-03T03:08:11;6.43;;;2.80;;
58404;SDS011;44200;50.732;4.276;2022-07-03T03:10:44;8.98;;;3.45;;
58404;SDS011;44200;50.732;4.276;2022-07-03T03:13:12;5.25;;;2.67;;
58404;SDS011;44200;50.732;4.276;2022-07-03T03:16:26;4.68;;;2.60;;
58404;SDS011;44200;50.732;4.276;2022-07-03T03:18:33;6.55;;;3.05;;
58404;SDS011;44200;50.732;4.276;2022-07-03T03:21:02;6.72;;;2.63;;
58404;SDS011;44200;50.732;4.276;2022-07-03T03:23:51;5.70;;;2.60;;
58404;SDS011;44200;50.732;4.276;2022-07-03T03:28:44;5.28;;;2.70;;
58404;SDS011;44200;50.732;4.276;2022-07-03T03:31:10;5.18;;;1.92;;
58404;SDS011;44200;50.732;4.276;2022-07-03T03:33:40;4.82;;;2.50;;
58404;SDS011;44200;50.732;4.276;2022-07-03T03:36:12;7.35;;;2.85;;
58404;SDS011;44200;50.732;4.276;2022-07-03T03:38:42;3.28;;;2.28;;
58404;SDS011;44200;50.732;4.276;2022-07-03T03:41:08;4.47;;;2.35;;
58404;SDS011;44200;50.732;4.276;2022-07-03T03:43:34;3.67;;;2.10;;
58404;SDS011;44200;50.732;4.276;2022-07-03T03:46:00;4.45;;;2.10;;
58404;SDS011;44200;50.732;4.276;2022-07-03T03:48:27;4.22;;;2.10;;
58404;SDS011;44200;50.732;4.276;2022-07-03T03:50:54;3.30;;;2.15;;
58404;SDS011;44200;50.732;4.276;2022-07-03T03:53:26;5.93;;;2.78;;
58404;SDS011;44200;50.732;4.276;2022-07-03T03:56:13;6.32;;;2.35;;
58404;SDS011;44200;50.732;4.276;2022-07-03T03:58:41;4.90;;;2.08;;
58404;SDS011;44200;50.732;4.276;2022-07-03T04:01:09;4.85;;;2.10;;
58404;SDS011;44200;50.732;4.276;2022-07-03T04:03:36;4.03;;;2.10;;
58404;SDS011;44200;50.732;4.276;2022-07-03T04:06:03;4.70;;;2.20;;
58404;SDS011;44200;50.732;4.276;2022-07-03T04:08:29;7.40;;;2.30;;
58404;SDS011;44200;50.732;4.276;2022-07-03T04:10:59;4.07;;;2.03;;
58404;SDS011;44200;50.732;4.276;2022-07-03T04:13:25;3.80;;;1.90;;
58404;SDS011;44200;50.732;4.276;2022-07-03T04:15:51;3.00;;;1.90;;
58404;SDS011;44200;50.732;4.276;2022-07-03T04:18:18;4.40;;;1.88;;
58404;SDS011;44200;50.732;4.276;2022-07-03T04:20:44;6.00;;;2.05;;
58404;SDS011;44200;50.732;4.276;2022-07-03T04:23:10;4.55;;;2.00;;
58404;SDS011;44200;50.732;4.276;2022-07-03T04:25:36;5.13;;;2.15;;
58404;SDS011;44200;50.732;4.276;2022-07-03T04:28:02;5.60;;;2.30;;
58404;SDS011;44200;50.732;4.276;2022-07-03T04:30:28;5.05;;;1.95;;
58404;SDS011;44200;50.732;4.276;2022-07-03T04:32:54;4.53;;;2.30;;
58404;SDS011;44200;50.732;4.276;2022-07-03T04:35:20;5.10;;;2.35;;
58404;SDS011;44200;50.732;4.276;2022-07-03T04:37:45;4.60;;;2.25;;
58404;SDS011;44200;50.732;4.276;2022-07-03T04:40:11;4.13;;;2.22;;
58404;SDS011;44200;50.732;4.276;2022-07-03T04:42:37;6.63;;;2.38;;
58404;SDS011;44200;50.732;4.276;2022-07-03T04:45:04;5.10;;;2.22;;
58404;SDS011;44200;50.732;4.276;2022-07-03T04:47:30;3.78;;;2.20;;
58404;SDS011;44200;50.732;4.276;2022-07-03T04:49:56;7.22;;;2.15;;
58404;SDS011;44200;50.732;4.276;2022-07-03T04:52:22;3.63;;;2.00;;
58404;SDS011;44200;50.732;4.276;2022-07-03T04:54:48;4.95;;;1.80;;
58404;SDS011;44200;50.732;4.276;2022-07-03T04:57:13;4.97;;;2.38;;
58404;SDS011;44200;50.732;4.276;2022-07-03T04:59:39;4.15;;;1.90;;
58404;SDS011;44200;50.732;4.276;2022-07-03T05:02:05;8.10;;;2.17;;
58404;SDS011;44200;50.732;4.276;2022-07-03T05:04:31;3.38;;;2.10;;
58404;SDS011;44200;50.732;4.276;2022-07-03T05:06:57;2.90;;;1.95;;
58404;SDS011;44200;50.732;4.276;2022-07-03T05:09:22;3.35;;;1.98;;
58404;SDS011;44200;50.732;4.276;2022-07-03T05:11:48;4.13;;;2.10;;
58404;SDS011;44200;50.732;4.276;2022-07-03T05:14:14;2.83;;;2.00;;
58404;SDS011;44200;50.732;4.276;2022-07-03T05:16:39;6.45;;;2.15;;
58404;SDS011;44200;50.732;4.276;2022-07-03T05:19:05;3.92;;;1.90;;
58404;SDS011;44200;50.732;4.276;2022-07-03T05:21:31;3.80;;;2.08;;
58404;SDS011;44200;50.732;4.276;2022-07-03T05:23:57;5.57;;;1.90;;
58404;SDS011;44200;50.732;4.276;2022-07-03T05:26:22;6.30;;;2.03;;
58404;SDS011;44200;50.732;4.276;2022-07-03T05:28:48;4.07;;;1.92;;
58404;SDS011;44200;50.732;4.276;2022-07-03T05:31:14;7.95;;;2.10;;
58404;SDS011;44200;50.732;4.276;2022-07-03T05:33:40;4.47;;;1.90;;
58404;SDS011;44200;50.732;4.276;2022-07-03T05:36:06;5.38;;;2.20;;
58404;SDS011;44200;50.732;4.276;2022-07-03T05:38:32;4.88;;;1.85;;
58404;SDS011;44200;50.732;4.276;2022-07-03T05:41:17;3.60;;;2.05;;
58404;SDS011;44200;50.732;4.276;2022-07-03T05:43:43;3.97;;;1.90;;
58404;SDS011;44200;50.732;4.276;2022-07-03T05:46:09;5.10;;;2.28;;
58404;SDS011;44200;50.732;4.276;2022-07-03T05:48:35;4.78;;;2.10;;
58404;SDS011;44200;50.732;4.276;2022-07-03T05:51:00;6.32;;;2.00;;
58404;SDS011;44200;50.732;4.276;2022-07-03T05:53:27;7.90;;;2.20;;
58404;SDS011;44200;50.732;4.276;2022-07-03T05:55:52;6.38;;;2.40;;
58404;SDS011;44200;50.732;4.276;2022-07-03T05:58:18;7.05;;;2.10;;
58404;SDS011;44200;50.732;4.276;2022-07-03T06:00:44;5.55;;;2.03;;
58404;SDS011;44200;50.732;4.276;2022-07-03T06:03:11;5.53;;;2.20;;
58404;SDS011;44200;50.732;4.276;2022-07-03T06:05:37;7.97;;;2.47;;
58404;SDS011;44200;50.732;4.276;2022-07-03T06:08:03;4.85;;;2.17;;
58404;SDS011;44200;50.732;4.276;2022-07-03T06:10:31;6.65;;;2.47;;
58404;SDS011;44200;50.732;4.276;2022-07-03T06:13:01;4.22;;;2.28;;
58404;SDS011;44200;50.732;4.276;2022-07-03T06:15:26;5.30;;;2.55;;
58404;SDS011;44200;50.732;4.276;2022-07-03T06:17:54;7.78;;;2.55;;
58404;SDS011;44200;50.732;4.276;2022-07-03T06:20:20;6.03;;;2.83;;
58404;SDS011;44200;50.732;4.276;2022-07-03T06:22:45;7.35;;;2.42;;
58404;SDS011;44200;50.732;4.276;2022-07-03T06:25:11;3.08;;;2.20;;
58404;SDS011;44200;50.732;4.276;2022-07-03T06:27:37;7.35;;;2.75;;
58404;SDS011;44200;50.732;4.276;2022-07-03T06:30:03;6.55;;;2.53;;
58404;SDS011;44200;50.732;4.276;2022-07-03T06:32:29;7.60;;;2.58;;
58404;SDS011;44200;50.732;4.276;2022-07-03T06:34:55;6.13;;;2.53;;
58404;SDS011;44200;50.732;4.276;2022-07-03T06:37:21;4.70;;;2.05;;
58404;SDS011;44200;50.732;4.276;2022-07-03T06:39:47;5.93;;;2.33;;
58404;SDS011;44200;50.732;4.276;2022-07-03T06:42:12;5.68;;;1.90;;
58404;SDS011;44200;50.732;4.276;2022-07-03T06:44:39;4.70;;;2.28;;
58404;SDS011;44200;50.732;4.276;2022-07-03T06:47:16;4.93;;;1.83;;
58404;SDS011;44200;50.732;4.276;2022-07-03T06:49:59;6.38;;;2.15;;
58404;SDS011;44200;50.732;4.276;2022-07-03T06:52:25;4.68;;;2.00;;
58404;SDS011;44200;50.732;4.276;2022-07-03T06:55:09;4.15;;;1.90;;
58404;SDS011;44200;50.732;4.276;2022-07-03T06:57:36;4.32;;;2.08;;
58404;SDS011;44200;50.732;4.276;2022-07-03T07:00:02;6.15;;;2.25;;
58404;SDS011;44200;50.732;4.276;2022-07-03T07:02:30;5.32;;;2.78;;
58404;SDS011;44200;50.732;4.276;2022-07-03T07:04:55;5.35;;;2.00;;
58404;SDS011;44200;50.732;4.276;2022-07-03T07:07:21;6.68;;;2.20;;
58404;SDS011;44200;50.732;4.276;2022-07-03T07:09:47;7.43;;;2.20;;
58404;SDS011;44200;50.732;4.276;2022-07-03T07:12:14;8.20;;;2.63;;
58404;SDS011;44200;50.732;4.276;2022-07-03T07:14:40;8.40;;;2.50;;
58404;SDS011;44200;50.732;4.276;2022-07-03T07:17:06;5.97;;;2.95;;
58404;SDS011;44200;50.732;4.276;2022-07-03T07:19:32;8.27;;;2.60;;
58404;SDS011;44200;50.732;4.276;2022-07-03T07:21:58;9.45;;;3.17;;
58404;SDS011;44200;50.732;4.276;2022-07-03T07:24:26;11.13;;;3.17;;
58404;SDS011;44200;50.732;4.276;2022-07-03T07:26:52;8.30;;;2.90;;
58404;SDS011;44200;50.732;4.276;2022-07-03T07:29:18;7.53;;;2.90;;
58404;SDS011;44200;50.732;4.276;2022-07-03T07:31:43;5.38;;;2.90;;
58404;SDS011;44200;50.732;4.276;2022-07-03T07:34:12;8.40;;;3.67;;
58404;SDS011;44200;50.732;4.276;2022-07-03T07:36:38;12.18;;;4.18;;
58404;SDS011;44200;50.732;4.276;2022-07-03T07:39:04;6.00;;;3.42;;
58404;SDS011;44200;50.732;4.276;2022-07-03T07:41:29;8.23;;;3.10;;
58404;SDS011;44200;50.732;4.276;2022-07-03T07:43:55;6.53;;;3.35;;
58404;SDS011;44200;50.732;4.276;2022-07-03T07:46:21;7.20;;;3.38;;
58404;SDS011;44200;50.732;4.276;2022-07-03T07:48:46;7.50;;;3.17;;
58404;SDS011;44200;50.732;4.276;2022-07-03T07:51:12;7.35;;;3.08;;
58404;SDS011;44200;50.732;4.276;2022-07-03T07:53:38;6.82;;;3.00;;
58404;SDS011;44200;50.732;4.276;2022-07-03T07:56:06;7.75;;;3.13;;
58404;SDS011;44200;50.732;4.276;2022-07-03T07:58:33;8.68;;;3.20;;
58404;SDS011;44200;50.732;4.276;2022-07-03T08:00:59;10.38;;;3.58;;
58404;SDS011;44200;50.732;4.276;2022-07-03T08:03:43;11.38;;;3.55;;
58404;SDS011;44200;50.732;4.276;2022-07-03T08:06:27;7.60;;;3.45;;
58404;SDS011;44200;50.732;4.276;2022-07-03T08:08:53;7.80;;;3.35;;
58404;SDS011;44200;50.732;4.276;2022-07-03T08:11:18;7.43;;;3.00;;
58404;SDS011;44200;50.732;4.276;2022-07-03T08:13:44;6.30;;;2.88;;
58404;SDS011;44200;50.732;4.276;2022-07-03T08:16:11;4.95;;;2.53;;
58404;SDS011;44200;50.732;4.276;2022-07-03T08:18:37;4.78;;;2.42;;
58404;SDS011;44200;50.732;4.276;2022-07-03T08:21:03;5.82;;;2.50;;
58404;SDS011;44200;50.732;4.276;2022-07-03T08:23:28;7.13;;;2.40;;
58404;SDS011;44200;50.732;4.276;2022-07-03T08:25:54;6.05;;;2.20;;
58404;SDS011;44200;50.732;4.276;2022-07-03T08:28:20;7.55;;;2.20;;
58404;SDS011;44200;50.732;4.276;2022-07-03T08:30:47;4.22;;;1.73;;
58404;SDS011;44200;50.732;4.276;2022-07-03T08:33:14;5.70;;;2.22;;
58404;SDS011;44200;50.732;4.276;2022-07-03T08:35:39;6.82;;;2.00;;
58404;SDS011;44200;50.732;4.276;2022-07-03T08:38:05;3.97;;;2.15;;
58404;SDS011;44200;50.732;4.276;2022-07-03T08:40:49;3.65;;;1.58;;
58404;SDS011;44200;50.732;4.276;2022-07-03T08:43:15;6.38;;;2.58;;
58404;SDS011;44200;50.732;4.276;2022-07-03T08:45:42;1.60;;;1.40;;
58404;SDS011;44200;50.732;4.276;2022-07-03T08:48:08;2.22;;;1.58;;
58404;SDS011;44200;50.732;4.276;2022-07-03T08:51:06;6.75;;;2.00;;
58404;SDS011;44200;50.732;4.276;2022-07-03T08:53:32;5.20;;;1.48;;
58404;SDS011;44200;50.732;4.276;2022-07-03T08:56:02;2.40;;;1.45;;
58404;SDS011;44200;50.732;4.276;2022-07-03T08:58:48;3.35;;;1.55;;
58404;SDS011;44200;50.732;4.276;2022-07-03T09:01:14;4.00;;;1.70;;
58404;SDS011;44200;50.732;4.276;2022-07-03T09:03:49;2.83;;;1.40;;
58404;SDS011;44200;50.732;4.276;2022-07-03T09:06:16;6.00;;;1.52;;
58404;SDS011;44200;50.732;4.276;2022-07-03T09:08:42;8.85;;;1.67;;
58404;SDS011;44200;50.732;4.276;2022-07-03T09:13:35;4.82;;;1.73;;
58404;SDS011;44200;50.732;4.276;2022-07-03T09:18:47;4.53;;;1.80;;
58404;SDS011;44200;50.732;4.276;2022-07-03T09:28:59;4.35;;;1.67;;
58404;SDS011;44200;50.732;4.276;2022-07-03T09:31:53;2.95;;;1.23;;
58404;SDS011;44200;50.732;4.276;2022-07-03T09:34:26;2.05;;;1.20;;
58404;SDS011;44200;50.732;4.276;2022-07-03T09:37:25;1.35;;;1.17;;
58404;SDS011;44200;50.732;4.276;2022-07-03T09:39:57;1.50;;;1.00;;
58404;SDS011;44200;50.732;4.276;2022-07-03T09:42:28;2.50;;;0.90;;
58404;SDS011;44200;50.732;4.276;2022-07-03T09:44:54;1.90;;;1.00;;
58404;SDS011;44200;50.732;4.276;2022-07-03T09:47:21;3.28;;;1.20;;
58404;SDS011;44200;50.732;4.276;2022-07-03T09:49:49;1.55;;;0.98;;
58404;SDS011;44200;50.732;4.276;2022-07-03T09:57:41;2.30;;;0.93;;
58404;SDS011;44200;50.732;4.276;2022-07-03T10:00:22;4.07;;;1.23;;
58404;SDS011;44200;50.732;4.276;2022-07-03T10:03:08;3.75;;;1.13;;
58404;SDS011;44200;50.732;4.276;2022-07-03T10:05:38;1.63;;;0.80;;
58404;SDS011;44200;50.732;4.276;2022-07-03T10:10:46;2.92;;;1.25;;
58404;SDS011;44200;50.732;4.276;2022-07-03T10:13:23;3.00;;;1.50;;
58404;SDS011;44200;50.732;4.276;2022-07-03T10:15:49;4.13;;;1.10;;
58404;SDS011;44200;50.732;4.276;2022-07-03T10:18:15;3.72;;;1.08;;
58404;SDS011;44200;50.732;4.276;2022-07-03T10:24:27;2.33;;;0.77;;
58404;SDS011;44200;50.732;4.276;2022-07-03T10:26:54;2.67;;;1.30;;
58404;SDS011;44200;50.732;4.276;2022-07-03T10:29:22;2.38;;;1.10;;
58404;SDS011;44200;50.732;4.276;2022-07-03T10:31:51;2.70;;;0.90;;
58404;SDS011;44200;50.732;4.276;2022-07-03T10:34:19;3.28;;;0.93;;
58404;SDS011;44200;50.732;4.276;2022-07-03T10:37:04;4.55;;;1.30;;
58404;SDS011;44200;50.732;4.276;2022-07-03T10:39:44;2.63;;;0.90;;
58404;SDS011;44200;50.732;4.276;2022-07-03T10:42:50;3.60;;;1.00;;
58404;SDS011;44200;50.732;4.276;2022-07-03T10:51:11;3.38;;;0.90;;
58404;SDS011;44200;50.732;4.276;2022-07-03T10:53:39;1.88;;;0.90;;
58404;SDS011;44200;50.732;4.276;2022-07-03T10:56:10;3.25;;;0.93;;
58404;SDS011;44200;50.732;4.276;2022-07-03T10:58:55;3.38;;;1.23;;
58404;SDS011;44200;50.732;4.276;2022-07-03T11:09:13;2.58;;;1.10;;
58404;SDS011;44200;50.732;4.276;2022-07-03T11:19:56;1.98;;;1.35;;
58404;SDS011;44200;50.732;4.276;2022-07-03T11:22:44;5.45;;;1.42;;
58404;SDS011;44200;50.732;4.276;2022-07-03T11:25:18;2.22;;;1.00;;
58404;SDS011;44200;50.732;4.276;2022-07-03T11:27:54;2.15;;;1.05;;
58404;SDS011;44200;50.732;4.276;2022-07-03T11:30:20;2.35;;;1.10;;
58404;SDS011;44200;50.732;4.276;2022-07-03T11:32:50;3.88;;;1.30;;
58404;SDS011;44200;50.732;4.276;2022-07-03T11:38:25;1.50;;;0.98;;
58404;SDS011;44200;50.732;4.276;2022-07-03T11:40:54;2.65;;;0.85;;
58404;SDS011;44200;50.732;4.276;2022-07-03T11:43:21;1.08;;;0.95;;
58404;SDS011;44200;50.732;4.276;2022-07-03T11:45:48;3.15;;;0.80;;
58404;SDS011;44200;50.732;4.276;2022-07-03T11:48:21;4.03;;;1.20;;
58404;SDS011;44200;50.732;4.276;2022-07-03T11:50:50;2.83;;;0.98;;
58404;SDS011;44200;50.732;4.276;2022-07-03T11:56:07;3.30;;;1.00;;
58404;SDS011;44200;50.732;4.276;2022-07-03T11:58:45;3.92;;;0.98;;
58404;SDS011;44200;50.732;4.276;2022-07-03T12:03:50;3.75;;;1.08;;
58404;SDS011;44200;50.732;4.276;2022-07-03T12:09:34;3.65;;;1.17;;
58404;SDS011;44200;50.732;4.276;2022-07-03T12:12:02;3.13;;;1.30;;
58404;SDS011;44200;50.732;4.276;2022-07-03T12:14:39;3.70;;;1.20;;
58404;SDS011;44200;50.732;4.276;2022-07-03T12:19:49;4.53;;;1.10;;
58404;SDS011;44200;50.732;4.276;2022-07-03T12:22:22;3.58;;;1.30;;
58404;SDS011;44200;50.732;4.276;2022-07-03T12:27:42;3.13;;;1.40;;
58404;SDS011;44200;50.732;4.276;2022-07-03T12:30:17;2.83;;;0.93;;
58404;SDS011;44200;50.732;4.276;2022-07-03T12:32:55;1.45;;;0.82;;
58404;SDS011;44200;50.732;4.276;2022-07-03T12:35:22;4.45;;;1.00;;
58404;SDS011;44200;50.732;4.276;2022-07-03T12:37:48;4.50;;;0.73;;
58404;SDS011;44200;50.732;4.276;2022-07-03T12:40:14;2.83;;;1.23;;
58404;SDS011;44200;50.732;4.276;2022-07-03T12:45:28;1.65;;;1.25;;
58404;SDS011;44200;50.732;4.276;2022-07-03T12:48:05;1.65;;;1.00;;
58404;SDS011;44200;50.732;4.276;2022-07-03T12:50:50;3.00;;;1.20;;
58404;SDS011;44200;50.732;4.276;2022-07-03T12:53:27;3.22;;;1.27;;
58404;SDS011;44200;50.732;4.276;2022-07-03T12:56:06;3.65;;;0.98;;
58404;SDS011;44200;50.732;4.276;2022-07-03T12:58:42;2.90;;;1.00;;
58404;SDS011;44200;50.732;4.276;2022-07-03T13:01:36;4.03;;;1.23;;
58404;SDS011;44200;50.732;4.276;2022-07-03T13:04:03;7.43;;;1.65;;
58404;SDS011;44200;50.732;4.276;2022-07-03T13:06:45;3.03;;;1.30;;
58404;SDS011;44200;50.732;4.276;2022-07-03T13:09:11;5.07;;;1.50;;
58404;SDS011;44200;50.732;4.276;2022-07-03T13:11:38;3.85;;;1.27;;
58404;SDS011;44200;50.732;4.276;2022-07-03T13:14:12;2.88;;;1.10;;
58404;SDS011;44200;50.732;4.276;2022-07-03T13:19:11;3.35;;;1.02;;
58404;SDS011;44200;50.732;4.276;2022-07-03T13:21:38;5.20;;;1.50;;
58404;SDS011;44200;50.732;4.276;2022-07-03T13:24:09;2.95;;;1.10;;
58404;SDS011;44200;50.732;4.276;2022-07-03T13:29:30;1.98;;;1.02;;
58404;SDS011;44200;50.732;4.276;2022-07-03T13:31:56;2.45;;;0.90;;
58404;SDS011;44200;50.732;4.276;2022-07-03T13:34:28;3.60;;;0.93;;
58404;SDS011;44200;50.732;4.276;2022-07-03T13:36:57;3.78;;;1.25;;
58404;SDS011;44200;50.732;4.276;2022-07-03T13:39:25;6.03;;;1.95;;
58404;SDS011;44200;50.732;4.276;2022-07-03T13:41:50;4.05;;;0.88;;
58404;SDS011;44200;50.732;4.276;2022-07-03T13:44:16;2.75;;;1.00;;
58404;SDS011;44200;50.732;4.276;2022-07-03T13:49:17;4.30;;;0.75;;
58404;SDS011;44200;50.732;4.276;2022-07-03T13:51:45;3.92;;;1.38;;
58404;SDS011;44200;50.732;4.276;2022-07-03T13:54:13;3.28;;;1.20;;
58404;SDS011;44200;50.732;4.276;2022-07-03T13:56:39;2.70;;;0.90;;
58404;SDS011;44200;50.732;4.276;2022-07-03T13:59:05;2.97;;;0.90;;
58404;SDS011;44200;50.732;4.276;2022-07-03T14:01:30;1.75;;;1.08;;
58404;SDS011;44200;50.732;4.276;2022-07-03T14:03:56;3.33;;;0.80;;
58404;SDS011;44200;50.732;4.276;2022-07-03T14:06:24;4.20;;;0.90;;
58404;SDS011;44200;50.732;4.276;2022-07-03T14:08:53;4.13;;;1.13;;
58404;SDS011;44200;50.732;4.276;2022-07-03T14:11:24;3.47;;;1.02;;
58404;SDS011;44200;50.732;4.276;2022-07-03T14:13:50;2.55;;;1.05;;
58404;SDS011;44200;50.732;4.276;2022-07-03T14:16:16;3.10;;;1.05;;
58404;SDS011;44200;50.732;4.276;2022-07-03T14:18:45;2.85;;;1.13;;
58404;SDS011;44200;50.732;4.276;2022-07-03T14:24:01;5.55;;;0.88;;
58404;SDS011;44200;50.732;4.276;2022-07-03T14:37:15;2.92;;;1.00;;
58404;SDS011;44200;50.732;4.276;2022-07-03T14:42:44;3.38;;;0.70;;
58404;SDS011;44200;50.732;4.276;2022-07-03T14:45:17;4.45;;;0.93;;
58404;SDS011;44200;50.732;4.276;2022-07-03T14:47:56;4.75;;;1.27;;
58404;SDS011;44200;50.732;4.276;2022-07-03T14:56:06;3.65;;;1.40;;
58404;SDS011;44200;50.732;4.276;2022-07-03T14:58:49;4.15;;;1.17;;
58404;SDS011;44200;50.732;4.276;2022-07-03T15:01:18;2.65;;;0.90;;
58404;SDS011;44200;50.732;4.276;2022-07-03T15:03:50;3.63;;;1.52;;
58404;SDS011;44200;50.732;4.276;2022-07-03T15:09:11;3.85;;;1.13;;
58404;SDS011;44200;50.732;4.276;2022-07-03T15:15:11;3.33;;;1.08;;
58404;SDS011;44200;50.732;4.276;2022-07-03T15:17:39;3.17;;;0.82;;
58404;SDS011;44200;50.732;4.276;2022-07-03T15:22:45;2.67;;;1.40;;
58404;SDS011;44200;50.732;4.276;2022-07-03T15:28:01;5.38;;;1.08;;
58404;SDS011;44200;50.732;4.276;2022-07-03T15:30:27;5.18;;;0.85;;
58404;SDS011;44200;50.732;4.276;2022-07-03T15:32:54;2.53;;;0.82;;
58404;SDS011;44200;50.732;4.276;2022-07-03T15:35:21;4.35;;;1.08;;
58404;SDS011;44200;50.732;4.276;2022-07-03T15:40:34;2.63;;;0.93;;
58404;SDS011;44200;50.732;4.276;2022-07-03T15:46:02;4.93;;;1.10;;
58404;SDS011;44200;50.732;4.276;2022-07-03T15:51:54;3.50;;;1.00;;
58404;SDS011;44200;50.732;4.276;2022-07-03T15:54:43;3.13;;;1.10;;
58404;SDS011;44200;50.732;4.276;2022-07-03T15:57:52;4.07;;;0.70;;
58404;SDS011;44200;50.732;4.276;2022-07-03T16:00:23;2.47;;;0.95;;
58404;SDS011;44200;50.732;4.276;2022-07-03T16:03:10;2.20;;;0.88;;
58404;SDS011;44200;50.732;4.276;2022-07-03T16:05:48;3.13;;;0.90;;
58404;SDS011;44200;50.732;4.276;2022-07-03T16:08:16;1.20;;;0.60;;
58404;SDS011;44200;50.732;4.276;2022-07-03T16:10:43;1.45;;;0.47;;
58404;SDS011;44200;50.732;4.276;2022-07-03T16:13:09;6.00;;;0.95;;
58404;SDS011;44200;50.732;4.276;2022-07-03T16:15:41;2.75;;;0.70;;
58404;SDS011;44200;50.732;4.276;2022-07-03T16:18:11;2.75;;;0.90;;
58404;SDS011;44200;50.732;4.276;2022-07-03T16:20:38;3.47;;;0.77;;
58404;SDS011;44200;50.732;4.276;2022-07-03T16:23:05;1.95;;;0.55;;
58404;SDS011;44200;50.732;4.276;2022-07-03T16:28:10;3.17;;;1.02;;
58404;SDS011;44200;50.732;4.276;2022-07-03T16:30:43;4.25;;;1.05;;
58404;SDS011;44200;50.732;4.276;2022-07-03T16:33:10;2.78;;;1.00;;
58404;SDS011;44200;50.732;4.276;2022-07-03T16:35:43;1.92;;;1.00;;
58404;SDS011;44200;50.732;4.276;2022-07-03T16:38:13;3.97;;;1.40;;
58404;SDS011;44200;50.732;4.276;2022-07-03T16:40:43;1.17;;;0.75;;
58404;SDS011;44200;50.732;4.276;2022-07-03T16:43:10;3.97;;;1.00;;
58404;SDS011;44200;50.732;4.276;2022-07-03T16:45:39;1.42;;;0.82;;
58404;SDS011;44200;50.732;4.276;2022-07-03T16:48:11;2.45;;;0.90;;
58404;SDS011;44200;50.732;4.276;2022-07-03T16:53:16;3.95;;;0.95;;
58404;SDS011;44200;50.732;4.276;2022-07-03T16:55:43;4.97;;;1.45;;
58404;SDS011;44200;50.732;4.276;2022-07-03T16:58:09;2.85;;;0.80;;
58404;SDS011;44200;50.732;4.276;2022-07-03T17:00:37;2.33;;;0.82;;
58404;SDS011;44200;50.732;4.276;2022-07-03T17:03:07;2.58;;;0.88;;
58404;SDS011;44200;50.732;4.276;2022-07-03T17:05:33;2.13;;;1.08;;
58404;SDS011;44200;50.732;4.276;2022-07-03T17:08:01;4.78;;;1.25;;
58404;SDS011;44200;50.732;4.276;2022-07-03T17:10:28;2.38;;;0.90;;
58404;SDS011;44200;50.732;4.276;2022-07-03T17:12:56;4.47;;;0.98;;
58404;SDS011;44200;50.732;4.276;2022-07-03T17:15:23;3.17;;;0.73;;
58404;SDS011;44200;50.732;4.276;2022-07-03T17:17:57;2.45;;;0.65;;
58404;SDS011;44200;50.732;4.276;2022-07-03T17:20:32;5.63;;;0.95;;
58404;SDS011;44200;50.732;4.276;2022-07-03T17:25:33;4.97;;;0.70;;
58404;SDS011;44200;50.732;4.276;2022-07-03T17:33:42;3.97;;;1.27;;
58404;SDS011;44200;50.732;4.276;2022-07-03T17:36:21;3.75;;;1.10;;
58404;SDS011;44200;50.732;4.276;2022-07-03T17:41:27;2.75;;;0.82;;
58404;SDS011;44200;50.732;4.276;2022-07-03T17:43:55;2.40;;;0.60;;
58404;SDS011;44200;50.732;4.276;2022-07-03T17:46:22;3.72;;;0.82;;
58404;SDS011;44200;50.732;4.276;2022-07-03T17:48:49;2.53;;;0.80;;
58404;SDS011;44200;50.732;4.276;2022-07-03T17:51:20;3.15;;;0.85;;
58404;SDS011;44200;50.732;4.276;2022-07-03T17:53:51;2.15;;;0.60;;
58404;SDS011;44200;50.732;4.276;2022-07-03T17:56:18;1.67;;;0.80;;
58404;SDS011;44200;50.732;4.276;2022-07-03T17:58:47;4.10;;;0.68;;
58404;SDS011;44200;50.732;4.276;2022-07-03T18:01:19;2.63;;;0.82;;
58404;SDS011;44200;50.732;4.276;2022-07-03T18:03:45;4.50;;;1.00;;
58404;SDS011;44200;50.732;4.276;2022-07-03T18:06:17;3.67;;;0.80;;
58404;SDS011;44200;50.732;4.276;2022-07-03T18:08:59;1.92;;;0.75;;
58404;SDS011;44200;50.732;4.276;2022-07-03T18:12:00;3.30;;;0.73;;
58404;SDS011;44200;50.732;4.276;2022-07-03T18:14:34;2.15;;;0.80;;
58404;SDS011;44200;50.732;4.276;2022-07-03T18:17:03;3.55;;;0.88;;
58404;SDS011;44200;50.732;4.276;2022-07-03T18:19:32;0.95;;;0.65;;
58404;SDS011;44200;50.732;4.276;2022-07-03T18:22:03;2.90;;;0.70;;
58404;SDS011;44200;50.732;4.276;2022-07-03T18:24:34;2.80;;;1.00;;
58404;SDS011;44200;50.732;4.276;2022-07-03T18:27:05;3.20;;;0.90;;
58404;SDS011;44200;50.732;4.276;2022-07-03T18:29:33;3.90;;;0.82;;
58404;SDS011;44200;50.732;4.276;2022-07-03T18:32:03;3.95;;;1.30;;
58404;SDS011;44200;50.732;4.276;2022-07-03T18:34:31;1.58;;;0.77;;
58404;SDS011;44200;50.732;4.276;2022-07-03T18:36:58;2.88;;;1.02;;
58404;SDS011;44200;50.732;4.276;2022-07-03T18:39:32;2.72;;;0.88;;
58404;SDS011;44200;50.732;4.276;2022-07-03T18:42:08;4.38;;;0.82;;
58404;SDS011;44200;50.732;4.276;2022-07-03T18:44:39;3.70;;;0.77;;
58404;SDS011;44200;50.732;4.276;2022-07-03T18:57:36;3.00;;;0.75;;
58404;SDS011;44200;50.732;4.276;2022-07-03T19:00:11;4.05;;;1.10;;
58404;SDS011;44200;50.732;4.276;2022-07-03T19:02:59;3.17;;;0.90;;
58404;SDS011;44200;50.732;4.276;2022-07-03T19:11:08;3.25;;;1.10;;
58404;SDS011;44200;50.732;4.276;2022-07-03T19:16:40;5.43;;;1.05;;
58404;SDS011;44200;50.732;4.276;2022-07-03T19:19:47;2.75;;;1.25;;
58404;SDS011;44200;50.732;4.276;2022-07-03T19:22:12;3.15;;;0.90;;
58404;SDS011;44200;50.732;4.276;2022-07-03T19:34:54;2.88;;;1.42;;
58404;SDS011;44200;50.732;4.276;2022-07-03T19:48:04;2.15;;;1.15;;
58404;SDS011;44200;50.732;4.276;2022-07-03T19:50:31;3.80;;;1.00;;
58404;SDS011;44200;50.732;4.276;2022-07-03T19:52:57;4.35;;;1.10;;
58404;SDS011;44200;50.732;4.276;2022-07-03T19:55:22;3.60;;;1.27;;
58404;SDS011;44200;50.732;4.276;2022-07-03T19:57:48;3.60;;;1.20;;
58404;SDS011;44200;50.732;4.276;2022-07-03T20:00:14;5.07;;;1.50;;
58404;SDS011;44200;50.732;4.276;2022-07-03T20:02:40;3.72;;;1.08;;
58404;SDS011;44200;50.732;4.276;2022-07-03T20:05:05;1.52;;;0.95;;
58404;SDS011;44200;50.732;4.276;2022-07-03T20:07:32;6.25;;;1.10;;
58404;SDS011;44200;50.732;4.276;2022-07-03T20:09:58;3.70;;;1.20;;
58404;SDS011;44200;50.732;4.276;2022-07-03T20:12:23;3.80;;;1.17;;
58404;SDS011;44200;50.732;4.276;2022-07-03T20:14:49;5.40;;;1.35;;
58404;SDS011;44200;50.732;4.276;2022-07-03T20:17:15;2.95;;;1.23;;
58404;SDS011;44200;50.732;4.276;2022-07-03T20:19:41;4.63;;;1.27;;